sensor_id;sensor_type;location;lat;lon;timestamp;P1;durP1;ratioP1;P2;durP2;ratioP2
26484;SDS011;18083;50.560;7.262;2022-08-07T00:01:38;1.30;;;1.17;;
26484;SDS011;18083;50.560;7.262;2022-08-07T00:04:06;1.07;;;0.70;;
26484;SDS011;18083;50.560;7.262;2022-08-07T00:06:33;1.15;;;1.00;;
26484;SDS011;18083;50.560;7.262;2022-08-07T00:09:01;1.60;;;1.25;;
26484;SDS011;18083;50.560;7.262;2022-08-07T00:11:28;1.27;;;1.10;;
26484;SDS011;18083;50.560;7.262;2022-08-07T00:13:56;2.90;;;1.20;;
26484;SDS011;18083;50.560;7.262;2022-08-07T00:16:23;3.75;;;1.02;;
26484;SDS011;18083;50.560;7.262;2022-08-07T00:18:50;1.32;;;1.00;;
26484;SDS011;18083;50.560;7.262;2022-08-07T00:21:18;3.72;;;1.20;;
26484;SDS011;18083;50.560;7.262;2022-08-07T00:23:45;1.80;;;1.25;;
26484;SDS011;18083;50.560;7.262;2022-08-07T00:26:12;1.05;;;0.90;;
26484;SDS011;18083;50.560;7.262;2022-08-07T00:28:40;1.85;;;1.37;;
26484;SDS011;18083;50.560;7.262;2022-08-07T00:31:09;1.92;;;1.05;;
26484;SDS011;18083;50.560;7.262;2022-08-07T00:33:37;1.45;;;1.15;;
26484;SDS011;18083;50.560;7.262;2022-08-07T00:36:05;1.17;;;1.10;;
26484;SDS011;18083;50.560;7.262;2022-08-07T00:38:33;2.22;;;1.50;;
26484;SDS011;18083;50.560;7.262;2022-08-07T00:41:02;1.60;;;1.50;;
26484;SDS011;18083;50.560;7.262;2022-08-07T00:43:30;2.60;;;1.10;;
26484;SDS011;18083;50.560;7.262;2022-08-07T00:45:58;2.90;;;1.55;;
26484;SDS011;18083;50.560;7.262;2022-08-07T00:48:25;1.22;;;1.05;;
26484;SDS011;18083;50.560;7.262;2022-08-07T00:50:53;1.67;;;1.17;;
26484;SDS011;18083;50.560;7.262;2022-08-07T00:53:21;2.08;;;1.27;;
26484;SDS011;18083;50.560;7.262;2022-08-07T00:55:49;2.37;;;1.17;;
26484;SDS011;18083;50.560;7.262;2022-08-07T00:58:17;1.75;;;1.42;;
26484;SDS011;18083;50.560;7.262;2022-08-07T01:00:45;1.57;;;1.05;;
26484;SDS011;18083;50.560;7.262;2022-08-07T01:03:13;2.22;;;1.77;;
26484;SDS011;18083;50.560;7.262;2022-08-07T01:05:41;2.15;;;1.98;;
26484;SDS011;18083;50.560;7.262;2022-08-07T01:08:08;2.90;;;2.50;;
26484;SDS011;18083;50.560;7.262;2022-08-07T01:10:36;3.70;;;2.55;;
26484;SDS011;18083;50.560;7.262;2022-08-07T01:13:04;4.62;;;3.10;;
26484;SDS011;18083;50.560;7.262;2022-08-07T01:15:31;3.30;;;2.75;;
26484;SDS011;18083;50.560;7.262;2022-08-07T01:18:00;4.28;;;2.92;;
26484;SDS011;18083;50.560;7.262;2022-08-07T01:20:30;3.80;;;3.15;;
26484;SDS011;18083;50.560;7.262;2022-08-07T01:22:56;5.25;;;2.77;;
26484;SDS011;18083;50.560;7.262;2022-08-07T01:25:23;3.02;;;2.42;;
26484;SDS011;18083;50.560;7.262;2022-08-07T01:27:51;2.77;;;2.58;;
26484;SDS011;18083;50.560;7.262;2022-08-07T01:30:19;3.87;;;2.90;;
26484;SDS011;18083;50.560;7.262;2022-08-07T01:32:46;3.00;;;2.70;;
26484;SDS011;18083;50.560;7.262;2022-08-07T01:35:13;2.40;;;2.20;;
26484;SDS011;18083;50.560;7.262;2022-08-07T01:37:41;2.15;;;1.90;;
26484;SDS011;18083;50.560;7.262;2022-08-07T01:40:08;3.52;;;3.20;;
26484;SDS011;18083;50.560;7.262;2022-08-07T01:42:36;3.80;;;2.95;;
26484;SDS011;18083;50.560;7.262;2022-08-07T01:45:04;2.55;;;2.35;;
26484;SDS011;18083;50.560;7.262;2022-08-07T01:47:32;2.52;;;2.27;;
26484;SDS011;18083;50.560;7.262;2022-08-07T01:49:59;2.20;;;1.90;;
26484;SDS011;18083;50.560;7.262;2022-08-07T01:52:26;3.90;;;2.60;;
26484;SDS011;18083;50.560;7.262;2022-08-07T01:54:55;2.75;;;2.27;;
26484;SDS011;18083;50.560;7.262;2022-08-07T01:57:26;3.22;;;2.58;;
26484;SDS011;18083;50.560;7.262;2022-08-07T01:59:53;6.70;;;3.62;;
26484;SDS011;18083;50.560;7.262;2022-08-07T02:02:30;2.75;;;2.37;;
26484;SDS011;18083;50.560;7.262;2022-08-07T02:05:02;2.52;;;2.20;;
26484;SDS011;18083;50.560;7.262;2022-08-07T02:07:29;1.92;;;1.72;;
26484;SDS011;18083;50.560;7.262;2022-08-07T02:09:57;3.15;;;1.65;;
26484;SDS011;18083;50.560;7.262;2022-08-07T02:12:24;1.65;;;1.47;;
26484;SDS011;18083;50.560;7.262;2022-08-07T02:14:54;2.33;;;1.35;;
26484;SDS011;18083;50.560;7.262;2022-08-07T02:17:22;2.62;;;1.25;;
26484;SDS011;18083;50.560;7.262;2022-08-07T02:19:49;1.65;;;1.55;;
26484;SDS011;18083;50.560;7.262;2022-08-07T02:22:17;2.15;;;1.47;;
26484;SDS011;18083;50.560;7.262;2022-08-07T02:24:45;1.15;;;1.05;;
26484;SDS011;18083;50.560;7.262;2022-08-07T02:27:14;1.37;;;1.27;;
26484;SDS011;18083;50.560;7.262;2022-08-07T02:29:42;2.10;;;1.07;;
26484;SDS011;18083;50.560;7.262;2022-08-07T02:32:11;1.87;;;1.27;;
26484;SDS011;18083;50.560;7.262;2022-08-07T02:34:38;2.77;;;1.00;;
26484;SDS011;18083;50.560;7.262;2022-08-07T02:37:07;1.40;;;1.30;;
26484;SDS011;18083;50.560;7.262;2022-08-07T02:39:36;3.12;;;1.55;;
26484;SDS011;18083;50.560;7.262;2022-08-07T02:42:05;3.30;;;1.60;;
26484;SDS011;18083;50.560;7.262;2022-08-07T02:44:33;1.40;;;1.30;;
26484;SDS011;18083;50.560;7.262;2022-08-07T02:47:01;2.37;;;1.30;;
26484;SDS011;18083;50.560;7.262;2022-08-07T02:49:30;3.47;;;1.77;;
26484;SDS011;18083;50.560;7.262;2022-08-07T02:51:57;1.25;;;1.12;;
26484;SDS011;18083;50.560;7.262;2022-08-07T02:54:26;2.83;;;1.42;;
26484;SDS011;18083;50.560;7.262;2022-08-07T02:56:55;2.00;;;1.37;;
26484;SDS011;18083;50.560;7.262;2022-08-07T02:59:23;1.82;;;1.55;;
26484;SDS011;18083;50.560;7.262;2022-08-07T03:01:52;1.40;;;1.30;;
26484;SDS011;18083;50.560;7.262;2022-08-07T03:04:20;1.42;;;1.32;;
26484;SDS011;18083;50.560;7.262;2022-08-07T03:06:48;3.83;;;1.80;;
26484;SDS011;18083;50.560;7.262;2022-08-07T03:09:17;1.80;;;1.35;;
26484;SDS011;18083;50.560;7.262;2022-08-07T03:11:45;1.75;;;1.37;;
26484;SDS011;18083;50.560;7.262;2022-08-07T03:14:12;1.17;;;1.07;;
26484;SDS011;18083;50.560;7.262;2022-08-07T03:16:40;1.67;;;1.57;;
26484;SDS011;18083;50.560;7.262;2022-08-07T03:19:08;1.98;;;1.17;;
26484;SDS011;18083;50.560;7.262;2022-08-07T03:21:36;1.82;;;1.47;;
26484;SDS011;18083;50.560;7.262;2022-08-07T03:24:03;1.65;;;1.55;;
26484;SDS011;18083;50.560;7.262;2022-08-07T03:26:31;2.15;;;1.15;;
26484;SDS011;18083;50.560;7.262;2022-08-07T03:29:00;1.82;;;1.47;;
26484;SDS011;18083;50.560;7.262;2022-08-07T03:31:28;1.10;;;1.00;;
26484;SDS011;18083;50.560;7.262;2022-08-07T03:33:57;1.17;;;0.95;;
26484;SDS011;18083;50.560;7.262;2022-08-07T03:36:25;4.22;;;2.00;;
26484;SDS011;18083;50.560;7.262;2022-08-07T03:38:54;1.22;;;1.15;;
26484;SDS011;18083;50.560;7.262;2022-08-07T03:41:22;3.52;;;1.15;;
26484;SDS011;18083;50.560;7.262;2022-08-07T03:43:49;2.20;;;1.30;;
26484;SDS011;18083;50.560;7.262;2022-08-07T03:46:17;1.50;;;1.40;;
26484;SDS011;18083;50.560;7.262;2022-08-07T03:48:44;0.90;;;0.90;;
26484;SDS011;18083;50.560;7.262;2022-08-07T03:51:11;1.25;;;1.17;;
26484;SDS011;18083;50.560;7.262;2022-08-07T03:53:39;1.25;;;1.15;;
26484;SDS011;18083;50.560;7.262;2022-08-07T03:56:06;2.17;;;1.15;;
26484;SDS011;18083;50.560;7.262;2022-08-07T03:58:35;1.60;;;1.50;;
26484;SDS011;18083;50.560;7.262;2022-08-07T04:01:03;1.77;;;1.30;;
26484;SDS011;18083;50.560;7.262;2022-08-07T04:03:30;3.22;;;1.30;;
26484;SDS011;18083;50.560;7.262;2022-08-07T04:05:58;2.00;;;1.50;;
26484;SDS011;18083;50.560;7.262;2022-08-07T04:08:26;2.12;;;1.90;;
26484;SDS011;18083;50.560;7.262;2022-08-07T04:10:53;1.92;;;1.60;;
26484;SDS011;18083;50.560;7.262;2022-08-07T04:13:22;2.65;;;1.17;;
26484;SDS011;18083;50.560;7.262;2022-08-07T04:15:49;1.60;;;1.40;;
26484;SDS011;18083;50.560;7.262;2022-08-07T04:18:17;2.00;;;1.50;;
26484;SDS011;18083;50.560;7.262;2022-08-07T04:20:44;1.52;;;1.30;;
26484;SDS011;18083;50.560;7.262;2022-08-07T04:23:11;2.40;;;1.25;;
26484;SDS011;18083;50.560;7.262;2022-08-07T04:25:39;1.50;;;1.05;;
26484;SDS011;18083;50.560;7.262;2022-08-07T04:28:07;1.62;;;1.27;;
26484;SDS011;18083;50.560;7.262;2022-08-07T04:30:35;1.75;;;1.47;;
26484;SDS011;18083;50.560;7.262;2022-08-07T04:33:06;3.17;;;1.30;;
26484;SDS011;18083;50.560;7.262;2022-08-07T04:35:35;3.52;;;2.40;;
26484;SDS011;18083;50.560;7.262;2022-08-07T04:38:07;1.55;;;1.45;;
26484;SDS011;18083;50.560;7.262;2022-08-07T04:40:32;3.35;;;1.57;;
26484;SDS011;18083;50.560;7.262;2022-08-07T04:42:59;2.45;;;1.70;;
26484;SDS011;18083;50.560;7.262;2022-08-07T04:45:28;1.42;;;1.32;;
26484;SDS011;18083;50.560;7.262;2022-08-07T04:48:03;1.57;;;1.30;;
26484;SDS011;18083;50.560;7.262;2022-08-07T04:50:32;2.25;;;1.60;;
26484;SDS011;18083;50.560;7.262;2022-08-07T04:53:03;1.47;;;1.37;;
26484;SDS011;18083;50.560;7.262;2022-08-07T04:55:29;1.95;;;1.52;;
26484;SDS011;18083;50.560;7.262;2022-08-07T04:57:55;1.50;;;1.10;;
26484;SDS011;18083;50.560;7.262;2022-08-07T05:00:28;3.00;;;1.40;;
26484;SDS011;18083;50.560;7.262;2022-08-07T05:03:14;3.08;;;1.50;;
26484;SDS011;18083;50.560;7.262;2022-08-07T05:05:39;1.98;;;1.15;;
26484;SDS011;18083;50.560;7.262;2022-08-07T05:08:02;2.05;;;1.20;;
26484;SDS011;18083;50.560;7.262;2022-08-07T05:10:36;2.85;;;1.35;;
26484;SDS011;18083;50.560;7.262;2022-08-07T05:13:08;1.52;;;1.42;;
26484;SDS011;18083;50.560;7.262;2022-08-07T05:15:38;1.40;;;1.30;;
26484;SDS011;18083;50.560;7.262;2022-08-07T05:18:07;1.32;;;1.12;;
26484;SDS011;18083;50.560;7.262;2022-08-07T05:20:41;1.40;;;1.30;;
26484;SDS011;18083;50.560;7.262;2022-08-07T05:23:16;5.67;;;1.50;;
26484;SDS011;18083;50.560;7.262;2022-08-07T05:25:39;3.27;;;1.32;;
26484;SDS011;18083;50.560;7.262;2022-08-07T05:28:07;1.95;;;1.45;;
26484;SDS011;18083;50.560;7.262;2022-08-07T05:30:35;1.12;;;1.12;;
26484;SDS011;18083;50.560;7.262;2022-08-07T05:33:03;1.52;;;1.05;;
26484;SDS011;18083;50.560;7.262;2022-08-07T05:35:31;1.60;;;1.50;;
26484;SDS011;18083;50.560;7.262;2022-08-07T05:37:59;1.65;;;1.20;;
26484;SDS011;18083;50.560;7.262;2022-08-07T05:40:27;1.60;;;1.10;;
26484;SDS011;18083;50.560;7.262;2022-08-07T05:42:55;0.93;;;0.90;;
26484;SDS011;18083;50.560;7.262;2022-08-07T05:45:23;1.37;;;1.27;;
26484;SDS011;18083;50.560;7.262;2022-08-07T05:47:51;1.25;;;1.15;;
26484;SDS011;18083;50.560;7.262;2022-08-07T05:50:19;1.00;;;1.00;;
26484;SDS011;18083;50.560;7.262;2022-08-07T05:52:47;1.57;;;1.27;;
26484;SDS011;18083;50.560;7.262;2022-08-07T05:55:14;1.30;;;1.20;;
26484;SDS011;18083;50.560;7.262;2022-08-07T05:57:41;1.92;;;1.30;;
26484;SDS011;18083;50.560;7.262;2022-08-07T06:00:09;1.10;;;1.10;;
26484;SDS011;18083;50.560;7.262;2022-08-07T06:02:37;3.00;;;1.30;;
26484;SDS011;18083;50.560;7.262;2022-08-07T06:05:06;1.10;;;0.90;;
26484;SDS011;18083;50.560;7.262;2022-08-07T06:07:34;2.50;;;1.40;;
26484;SDS011;18083;50.560;7.262;2022-08-07T06:10:01;1.42;;;1.30;;
26484;SDS011;18083;50.560;7.262;2022-08-07T06:12:28;1.67;;;1.10;;
26484;SDS011;18083;50.560;7.262;2022-08-07T06:14:59;2.60;;;1.20;;
26484;SDS011;18083;50.560;7.262;2022-08-07T06:17:26;1.10;;;1.00;;
26484;SDS011;18083;50.560;7.262;2022-08-07T06:19:54;1.10;;;0.82;;
26484;SDS011;18083;50.560;7.262;2022-08-07T06:22:22;3.45;;;1.52;;
26484;SDS011;18083;50.560;7.262;2022-08-07T06:24:49;1.30;;;1.20;;
26484;SDS011;18083;50.560;7.262;2022-08-07T06:27:21;2.65;;;1.80;;
26484;SDS011;18083;50.560;7.262;2022-08-07T06:29:48;1.50;;;1.40;;
26484;SDS011;18083;50.560;7.262;2022-08-07T06:32:16;4.92;;;1.27;;
26484;SDS011;18083;50.560;7.262;2022-08-07T06:34:43;1.85;;;1.35;;
26484;SDS011;18083;50.560;7.262;2022-08-07T06:37:11;1.42;;;1.00;;
26484;SDS011;18083;50.560;7.262;2022-08-07T06:39:38;1.60;;;1.50;;
26484;SDS011;18083;50.560;7.262;2022-08-07T06:44:34;2.62;;;1.60;;
26484;SDS011;18083;50.560;7.262;2022-08-07T06:47:02;1.35;;;1.20;;
26484;SDS011;18083;50.560;7.262;2022-08-07T06:49:30;1.45;;;1.35;;
26484;SDS011;18083;50.560;7.262;2022-08-07T06:51:57;1.30;;;1.20;;
26484;SDS011;18083;50.560;7.262;2022-08-07T06:54:25;4.87;;;2.33;;
26484;SDS011;18083;50.560;7.262;2022-08-07T06:56:53;1.87;;;1.35;;
26484;SDS011;18083;50.560;7.262;2022-08-07T06:59:30;1.57;;;1.20;;
26484;SDS011;18083;50.560;7.262;2022-08-07T07:01:55;1.87;;;1.40;;
26484;SDS011;18083;50.560;7.262;2022-08-07T07:04:24;1.47;;;1.40;;
26484;SDS011;18083;50.560;7.262;2022-08-07T07:06:51;1.42;;;1.27;;
26484;SDS011;18083;50.560;7.262;2022-08-07T07:11:53;1.65;;;1.32;;
26484;SDS011;18083;50.560;7.262;2022-08-07T07:14:16;3.37;;;1.47;;
26484;SDS011;18083;50.560;7.262;2022-08-07T07:16:45;5.87;;;1.30;;
26484;SDS011;18083;50.560;7.262;2022-08-07T07:19:14;1.75;;;1.62;;
26484;SDS011;18083;50.560;7.262;2022-08-07T07:21:41;4.37;;;2.45;;
26484;SDS011;18083;50.560;7.262;2022-08-07T07:24:09;2.70;;;1.55;;
26484;SDS011;18083;50.560;7.262;2022-08-07T07:26:37;1.22;;;1.12;;
26484;SDS011;18083;50.560;7.262;2022-08-07T07:29:07;2.47;;;1.37;;
26484;SDS011;18083;50.560;7.262;2022-08-07T07:31:34;1.67;;;1.57;;
26484;SDS011;18083;50.560;7.262;2022-08-07T07:34:05;1.35;;;1.25;;
26484;SDS011;18083;50.560;7.262;2022-08-07T07:36:33;1.40;;;1.30;;
26484;SDS011;18083;50.560;7.262;2022-08-07T07:39:03;4.10;;;1.70;;
26484;SDS011;18083;50.560;7.262;2022-08-07T07:41:35;4.30;;;1.62;;
26484;SDS011;18083;50.560;7.262;2022-08-07T07:43:59;1.57;;;1.25;;
26484;SDS011;18083;50.560;7.262;2022-08-07T07:46:28;3.50;;;1.22;;
26484;SDS011;18083;50.560;7.262;2022-08-07T07:48:56;1.30;;;1.20;;
26484;SDS011;18083;50.560;7.262;2022-08-07T07:51:24;1.87;;;1.30;;
26484;SDS011;18083;50.560;7.262;2022-08-07T07:53:52;0.98;;;0.95;;
26484;SDS011;18083;50.560;7.262;2022-08-07T07:56:22;2.12;;;1.00;;
26484;SDS011;18083;50.560;7.262;2022-08-07T07:58:49;1.15;;;0.90;;
26484;SDS011;18083;50.560;7.262;2022-08-07T08:01:16;1.60;;;0.82;;
26484;SDS011;18083;50.560;7.262;2022-08-07T08:03:45;3.62;;;0.78;;
26484;SDS011;18083;50.560;7.262;2022-08-07T08:06:13;1.15;;;1.05;;
26484;SDS011;18083;50.560;7.262;2022-08-07T08:08:40;1.77;;;0.93;;
26484;SDS011;18083;50.560;7.262;2022-08-07T08:11:09;1.25;;;1.12;;
26484;SDS011;18083;50.560;7.262;2022-08-07T08:13:41;2.60;;;1.00;;
26484;SDS011;18083;50.560;7.262;2022-08-07T08:16:05;1.25;;;1.02;;
26484;SDS011;18083;50.560;7.262;2022-08-07T08:18:33;0.80;;;0.80;;
26484;SDS011;18083;50.560;7.262;2022-08-07T08:21:01;1.05;;;0.80;;
26484;SDS011;18083;50.560;7.262;2022-08-07T08:23:30;1.82;;;0.90;;
26484;SDS011;18083;50.560;7.262;2022-08-07T08:26:17;3.50;;;1.45;;
26484;SDS011;18083;50.560;7.262;2022-08-07T08:29:03;0.98;;;0.93;;
26484;SDS011;18083;50.560;7.262;2022-08-07T08:31:32;2.10;;;0.80;;
26484;SDS011;18083;50.560;7.262;2022-08-07T08:34:01;1.42;;;0.70;;
26484;SDS011;18083;50.560;7.262;2022-08-07T08:36:31;0.60;;;0.60;;
26484;SDS011;18083;50.560;7.262;2022-08-07T08:38:58;3.35;;;0.80;;
26484;SDS011;18083;50.560;7.262;2022-08-07T08:41:45;2.25;;;1.00;;
26484;SDS011;18083;50.560;7.262;2022-08-07T08:44:24;1.67;;;0.98;;
26484;SDS011;18083;50.560;7.262;2022-08-07T08:47:03;0.90;;;0.90;;
26484;SDS011;18083;50.560;7.262;2022-08-07T08:52:11;0.70;;;0.70;;
26484;SDS011;18083;50.560;7.262;2022-08-07T08:54:40;0.60;;;0.60;;
26484;SDS011;18083;50.560;7.262;2022-08-07T08:57:10;0.93;;;0.80;;
26484;SDS011;18083;50.560;7.262;2022-08-07T08:59:41;0.50;;;0.50;;
26484;SDS011;18083;50.560;7.262;2022-08-07T09:02:14;0.90;;;0.90;;
26484;SDS011;18083;50.560;7.262;2022-08-07T09:04:46;0.75;;;0.70;;
26484;SDS011;18083;50.560;7.262;2022-08-07T09:07:17;1.75;;;0.90;;
26484;SDS011;18083;50.560;7.262;2022-08-07T09:09:52;1.72;;;0.62;;
26484;SDS011;18083;50.560;7.262;2022-08-07T09:12:28;0.57;;;0.53;;
26484;SDS011;18083;50.560;7.262;2022-08-07T09:15:09;1.02;;;0.60;;
26484;SDS011;18083;50.560;7.262;2022-08-07T09:17:48;0.60;;;0.60;;
26484;SDS011;18083;50.560;7.262;2022-08-07T09:20:29;0.68;;;0.65;;
26484;SDS011;18083;50.560;7.262;2022-08-07T09:23:13;0.75;;;0.75;;
26484;SDS011;18083;50.560;7.262;2022-08-07T09:25:46;1.17;;;0.70;;
26484;SDS011;18083;50.560;7.262;2022-08-07T09:28:18;0.95;;;0.60;;
26484;SDS011;18083;50.560;7.262;2022-08-07T09:35:55;0.40;;;0.40;;
26484;SDS011;18083;50.560;7.262;2022-08-07T09:38:30;1.92;;;0.88;;
26484;SDS011;18083;50.560;7.262;2022-08-07T09:40:59;0.93;;;0.53;;
26484;SDS011;18083;50.560;7.262;2022-08-07T09:44:13;1.82;;;0.55;;
26484;SDS011;18083;50.560;7.262;2022-08-07T09:53:57;0.70;;;0.60;;
26484;SDS011;18083;50.560;7.262;2022-08-07T10:06:41;3.40;;;0.80;;
26484;SDS011;18083;50.560;7.262;2022-08-07T10:09:12;1.42;;;0.80;;
26484;SDS011;18083;50.560;7.262;2022-08-07T10:19:29;2.47;;;1.10;;
26484;SDS011;18083;50.560;7.262;2022-08-07T10:40:34;1.25;;;0.70;;
26484;SDS011;18083;50.560;7.262;2022-08-07T10:45:37;1.85;;;0.70;;
26484;SDS011;18083;50.560;7.262;2022-08-07T10:50:53;1.15;;;0.70;;
26484;SDS011;18083;50.560;7.262;2022-08-07T10:53:30;1.32;;;0.80;;
26484;SDS011;18083;50.560;7.262;2022-08-07T10:56:02;0.95;;;0.68;;
26484;SDS011;18083;50.560;7.262;2022-08-07T10:58:41;0.78;;;0.50;;
26484;SDS011;18083;50.560;7.262;2022-08-07T11:01:03;2.75;;;0.72;;
26484;SDS011;18083;50.560;7.262;2022-08-07T11:03:44;2.47;;;0.60;;
26484;SDS011;18083;50.560;7.262;2022-08-07T11:06:12;0.50;;;0.50;;
26484;SDS011;18083;50.560;7.262;2022-08-07T11:08:42;0.78;;;0.70;;
26484;SDS011;18083;50.560;7.262;2022-08-07T11:11:13;0.65;;;0.65;;
26484;SDS011;18083;50.560;7.262;2022-08-07T11:16:16;0.68;;;0.50;;
26484;SDS011;18083;50.560;7.262;2022-08-07T11:18:49;1.67;;;0.98;;
26484;SDS011;18083;50.560;7.262;2022-08-07T11:23:55;0.65;;;0.65;;
26484;SDS011;18083;50.560;7.262;2022-08-07T11:29:01;1.90;;;0.72;;
26484;SDS011;18083;50.560;7.262;2022-08-07T11:31:30;2.40;;;0.62;;
26484;SDS011;18083;50.560;7.262;2022-08-07T11:34:00;0.95;;;0.70;;
26484;SDS011;18083;50.560;7.262;2022-08-07T11:39:21;1.75;;;0.50;;
26484;SDS011;18083;50.560;7.262;2022-08-07T11:41:51;0.90;;;0.55;;
26484;SDS011;18083;50.560;7.262;2022-08-07T11:46:57;0.60;;;0.60;;
26484;SDS011;18083;50.560;7.262;2022-08-07T11:57:31;0.98;;;0.85;;
26484;SDS011;18083;50.560;7.262;2022-08-07T12:00:09;0.95;;;0.75;;
26484;SDS011;18083;50.560;7.262;2022-08-07T12:02:59;0.50;;;0.50;;
26484;SDS011;18083;50.560;7.262;2022-08-07T12:07:59;0.50;;;0.50;;
26484;SDS011;18083;50.560;7.262;2022-08-07T12:10:28;0.72;;;0.55;;
26484;SDS011;18083;50.560;7.262;2022-08-07T12:12:56;0.60;;;0.60;;
26484;SDS011;18083;50.560;7.262;2022-08-07T12:15:23;2.40;;;1.30;;
26484;SDS011;18083;50.560;7.262;2022-08-07T12:17:53;0.57;;;0.50;;
26484;SDS011;18083;50.560;7.262;2022-08-07T12:25:35;0.82;;;0.82;;
26484;SDS011;18083;50.560;7.262;2022-08-07T12:28:22;0.80;;;0.80;;
26484;SDS011;18083;50.560;7.262;2022-08-07T12:30:50;1.00;;;0.33;;
26484;SDS011;18083;50.560;7.262;2022-08-07T12:33:18;2.00;;;0.65;;
26484;SDS011;18083;50.560;7.262;2022-08-07T12:35:47;1.95;;;0.70;;
26484;SDS011;18083;50.560;7.262;2022-08-07T12:38:15;1.92;;;0.70;;
26484;SDS011;18083;50.560;7.262;2022-08-07T12:40:43;1.55;;;0.72;;
26484;SDS011;18083;50.560;7.262;2022-08-07T12:43:12;0.70;;;0.70;;
26484;SDS011;18083;50.560;7.262;2022-08-07T12:48:28;1.67;;;0.80;;
26484;SDS011;18083;50.560;7.262;2022-08-07T12:53:39;0.78;;;0.78;;
26484;SDS011;18083;50.560;7.262;2022-08-07T12:56:15;0.70;;;0.60;;
26484;SDS011;18083;50.560;7.262;2022-08-07T12:58:41;0.40;;;0.40;;
26484;SDS011;18083;50.560;7.262;2022-08-07T13:17:19;3.22;;;1.17;;
26484;SDS011;18083;50.560;7.262;2022-08-07T13:19:51;0.72;;;0.72;;
26484;SDS011;18083;50.560;7.262;2022-08-07T13:22:23;0.82;;;0.80;;
26484;SDS011;18083;50.560;7.262;2022-08-07T13:24:55;1.85;;;0.70;;
26484;SDS011;18083;50.560;7.262;2022-08-07T13:27:28;0.70;;;0.70;;
26484;SDS011;18083;50.560;7.262;2022-08-07T13:30:09;0.85;;;0.50;;
26484;SDS011;18083;50.560;7.262;2022-08-07T13:35:10;2.75;;;0.62;;
26484;SDS011;18083;50.560;7.262;2022-08-07T13:37:40;0.95;;;0.80;;
26484;SDS011;18083;50.560;7.262;2022-08-07T13:42:41;0.60;;;0.60;;
26484;SDS011;18083;50.560;7.262;2022-08-07T13:45:09;0.60;;;0.60;;
26484;SDS011;18083;50.560;7.262;2022-08-07T13:47:36;0.60;;;0.60;;
26484;SDS011;18083;50.560;7.262;2022-08-07T13:50:06;1.32;;;0.80;;
26484;SDS011;18083;50.560;7.262;2022-08-07T13:52:37;0.68;;;0.68;;
26484;SDS011;18083;50.560;7.262;2022-08-07T13:55:10;1.27;;;0.80;;
26484;SDS011;18083;50.560;7.262;2022-08-07T13:57:39;1.10;;;0.57;;
26484;SDS011;18083;50.560;7.262;2022-08-07T14:00:07;0.55;;;0.55;;
26484;SDS011;18083;50.560;7.262;2022-08-07T14:02:35;0.68;;;0.68;;
26484;SDS011;18083;50.560;7.262;2022-08-07T14:05:10;1.85;;;0.55;;
26484;SDS011;18083;50.560;7.262;2022-08-07T14:07:39;1.15;;;0.55;;
26484;SDS011;18083;50.560;7.262;2022-08-07T14:10:06;0.40;;;0.40;;
26484;SDS011;18083;50.560;7.262;2022-08-07T14:12:54;2.22;;;0.50;;
26484;SDS011;18083;50.560;7.262;2022-08-07T14:15:36;1.02;;;0.88;;
26484;SDS011;18083;50.560;7.262;2022-08-07T14:18:05;2.80;;;1.15;;
26484;SDS011;18083;50.560;7.262;2022-08-07T14:20:35;0.65;;;0.65;;
26484;SDS011;18083;50.560;7.262;2022-08-07T14:23:14;1.22;;;0.60;;
26484;SDS011;18083;50.560;7.262;2022-08-07T14:25:37;2.15;;;0.65;;
26484;SDS011;18083;50.560;7.262;2022-08-07T14:28:07;0.80;;;0.70;;
26484;SDS011;18083;50.560;7.262;2022-08-07T14:30:35;1.75;;;0.57;;
26484;SDS011;18083;50.560;7.262;2022-08-07T14:33:03;0.70;;;0.53;;
26484;SDS011;18083;50.560;7.262;2022-08-07T14:35:32;2.00;;;0.75;;
26484;SDS011;18083;50.560;7.262;2022-08-07T14:37:59;0.60;;;0.60;;
26484;SDS011;18083;50.560;7.262;2022-08-07T14:40:27;0.60;;;0.60;;
26484;SDS011;18083;50.560;7.262;2022-08-07T14:42:57;0.90;;;0.70;;
26484;SDS011;18083;50.560;7.262;2022-08-07T14:45:28;0.53;;;0.47;;
26484;SDS011;18083;50.560;7.262;2022-08-07T14:47:56;2.95;;;0.78;;
26484;SDS011;18083;50.560;7.262;2022-08-07T14:50:24;0.78;;;0.53;;
26484;SDS011;18083;50.560;7.262;2022-08-07T14:52:53;1.52;;;0.60;;
26484;SDS011;18083;50.560;7.262;2022-08-07T14:55:31;1.27;;;0.50;;
26484;SDS011;18083;50.560;7.262;2022-08-07T14:57:58;2.98;;;0.70;;
26484;SDS011;18083;50.560;7.262;2022-08-07T15:00:28;0.60;;;0.60;;
26484;SDS011;18083;50.560;7.262;2022-08-07T15:03:01;0.72;;;0.50;;
26484;SDS011;18083;50.560;7.262;2022-08-07T15:05:28;0.60;;;0.60;;
26484;SDS011;18083;50.560;7.262;2022-08-07T15:07:56;0.90;;;0.72;;
26484;SDS011;18083;50.560;7.262;2022-08-07T15:10:24;0.57;;;0.57;;
26484;SDS011;18083;50.560;7.262;2022-08-07T15:13:05;1.02;;;0.60;;
26484;SDS011;18083;50.560;7.262;2022-08-07T15:15:37;0.93;;;0.60;;
26484;SDS011;18083;50.560;7.262;2022-08-07T15:18:14;1.12;;;0.70;;
26484;SDS011;18083;50.560;7.262;2022-08-07T15:20:37;1.27;;;1.00;;
26484;SDS011;18083;50.560;7.262;2022-08-07T15:23:06;0.80;;;0.60;;
26484;SDS011;18083;50.560;7.262;2022-08-07T15:25:35;0.80;;;0.47;;
26484;SDS011;18083;50.560;7.262;2022-08-07T15:28:04;1.25;;;0.62;;
26484;SDS011;18083;50.560;7.262;2022-08-07T15:30:32;0.60;;;0.60;;
26484;SDS011;18083;50.560;7.262;2022-08-07T15:33:00;0.70;;;0.70;;
26484;SDS011;18083;50.560;7.262;2022-08-07T15:35:28;0.50;;;0.50;;
26484;SDS011;18083;50.560;7.262;2022-08-07T15:37:57;1.85;;;0.62;;
26484;SDS011;18083;50.560;7.262;2022-08-07T15:40:27;0.80;;;0.50;;
26484;SDS011;18083;50.560;7.262;2022-08-07T15:42:55;1.37;;;0.50;;
26484;SDS011;18083;50.560;7.262;2022-08-07T15:47:56;1.82;;;0.50;;
26484;SDS011;18083;50.560;7.262;2022-08-07T15:50:27;4.60;;;1.07;;
26484;SDS011;18083;50.560;7.262;2022-08-07T15:52:59;2.00;;;1.10;;
26484;SDS011;18083;50.560;7.262;2022-08-07T15:55:26;0.50;;;0.50;;
26484;SDS011;18083;50.560;7.262;2022-08-07T15:57:55;0.80;;;0.60;;
26484;SDS011;18083;50.560;7.262;2022-08-07T16:00:28;1.10;;;1.00;;
26484;SDS011;18083;50.560;7.262;2022-08-07T16:02:52;0.98;;;0.65;;
26484;SDS011;18083;50.560;7.262;2022-08-07T16:05:21;2.27;;;0.75;;
26484;SDS011;18083;50.560;7.262;2022-08-07T16:07:50;0.93;;;0.60;;
26484;SDS011;18083;50.560;7.262;2022-08-07T16:10:19;2.42;;;0.75;;
26484;SDS011;18083;50.560;7.262;2022-08-07T16:15:42;0.50;;;0.50;;
26484;SDS011;18083;50.560;7.262;2022-08-07T16:21:07;1.07;;;0.60;;
26484;SDS011;18083;50.560;7.262;2022-08-07T16:26:27;1.10;;;0.75;;
26484;SDS011;18083;50.560;7.262;2022-08-07T16:34:06;0.72;;;0.70;;
26484;SDS011;18083;50.560;7.262;2022-08-07T16:36:41;0.85;;;0.60;;
26484;SDS011;18083;50.560;7.262;2022-08-07T16:42:05;0.70;;;0.70;;
26484;SDS011;18083;50.560;7.262;2022-08-07T16:47:13;1.60;;;0.60;;
26484;SDS011;18083;50.560;7.262;2022-08-07T16:49:56;2.45;;;0.70;;
26484;SDS011;18083;50.560;7.262;2022-08-07T16:55:00;3.80;;;0.60;;
26484;SDS011;18083;50.560;7.262;2022-08-07T16:57:30;1.07;;;0.53;;
26484;SDS011;18083;50.560;7.262;2022-08-07T17:00:16;0.85;;;0.85;;
26484;SDS011;18083;50.560;7.262;2022-08-07T17:05:42;1.00;;;0.90;;
26484;SDS011;18083;50.560;7.262;2022-08-07T17:07:58;1.90;;;0.57;;
26484;SDS011;18083;50.560;7.262;2022-08-07T17:10:31;1.62;;;1.20;;
26484;SDS011;18083;50.560;7.262;2022-08-07T17:13:00;1.10;;;1.10;;
26484;SDS011;18083;50.560;7.262;2022-08-07T17:15:38;1.72;;;1.40;;
26484;SDS011;18083;50.560;7.262;2022-08-07T17:20:40;0.72;;;0.72;;
26484;SDS011;18083;50.560;7.262;2022-08-07T17:31:02;2.33;;;0.90;;
26484;SDS011;18083;50.560;7.262;2022-08-07T17:33:32;2.60;;;1.70;;
26484;SDS011;18083;50.560;7.262;2022-08-07T17:36:02;1.12;;;1.02;;
26484;SDS011;18083;50.560;7.262;2022-08-07T17:38:31;0.70;;;0.70;;